^^
Paulen-Weather Station Historical Data
Daily Summary for June 18, 2022 Units:  Metric    English   Both
Daily Weekly Monthly Yearly Custom
  High: Low: Average:
Temperature: 14 °C 13 °C 13.4 °C
Dew Point: 14 °C 13 °C 13.1 °C
Humidity: 98% 96% 98%
Wind Speed: 13km/h 1km/h 6.2km/h
Wind Gust: 9km/h - -
Wind- - WNW
Pressure: 1010.02 hPa 1009.45 hPa -
Precipitation: 0 mm    
Historical Graphs
 
 
Tabular Data for June 18, 2022
Time Temperature Dew Point Pressure Wind Wind Speed Wind Gust Humidity Rainfall Rate (Hourly) solar
00:04 14 °C 14 °C 1010.02 hPa NW 4 km/h 3 km/h 96% 0 mm 0 W/m2
00:09 14 °C 14 °C 1010.02 hPa NNW 4 km/h 2 km/h 96% 0 mm 0 W/m2
00:14 14 °C 14 °C 1009.92 hPa NNW 5 km/h 2 km/h 96% 0 mm 0 W/m2
00:19 14 °C 14 °C 1009.89 hPa NW 4 km/h 2 km/h 96% 0 mm 0 W/m2
00:24 14 °C 14 °C 1009.92 hPa NW 7 km/h 4 km/h 97% 0 mm 0 W/m2
00:29 14 °C 14 °C 1009.82 hPa NW 6 km/h 8 km/h 97% 0 mm 0 W/m2
00:34 14 °C 14 °C 1009.75 hPa NW 7 km/h 8 km/h 97% 0 mm 0 W/m2
00:39 14 °C 14 °C 1009.69 hPa NW 7 km/h 4 km/h 97% 0 mm 0 W/m2
00:44 14 °C 13 °C 1009.65 hPa NW 6 km/h 5 km/h 97% 0 mm 0 W/m2
00:49 14 °C 13 °C 1009.65 hPa NW 5 km/h 3 km/h 97% 0 mm 0 W/m2
00:54 14 °C 13 °C 1009.65 hPa NW 7 km/h 5 km/h 97% 0 mm 0 W/m2
00:59 14 °C 13 °C 1009.55 hPa NW 7 km/h 4 km/h 97% 0 mm 0 W/m2
01:04 14 °C 13 °C 1009.69 hPa NW 7 km/h 4 km/h 97% 0 mm 0 W/m2
01:09 14 °C 13 °C 1009.79 hPa NW 8 km/h 5 km/h 97% 0 mm 0 W/m2
01:14 14 °C 13 °C 1009.82 hPa NNW 6 km/h 3 km/h 97% 0 mm 0 W/m2
01:19 14 °C 13 °C 1009.75 hPa NNW 7 km/h 2 km/h 97% 0 mm 0 W/m2
01:24 14 °C 13 °C 1009.75 hPa NNW 6 km/h 3 km/h 97% 0 mm 0 W/m2
01:29 14 °C 13 °C 1009.75 hPa NNW 10 km/h 6 km/h 97% 0 mm 0 W/m2
01:34 14 °C 13 °C 1009.75 hPa NNW 5 km/h 3 km/h 97% 0 mm 0 W/m2
01:39 14 °C 13 °C 1009.69 hPa NNW 5 km/h 2 km/h 97% 0 mm 0 W/m2
01:44 14 °C 13 °C 1009.69 hPa NNW 6 km/h 4 km/h 97% 0 mm 0 W/m2
01:49 14 °C 13 °C 1009.69 hPa NNW 6 km/h 4 km/h 97% 0 mm 0 W/m2
01:54 14 °C 13 °C 1009.65 hPa NNW 5 km/h 3 km/h 98% 0 mm 0 W/m2
01:59 14 °C 13 °C 1009.69 hPa NW 6 km/h 4 km/h 98% 0 mm 0 W/m2
02:04 14 °C 13 °C 1009.65 hPa N 4 km/h 2 km/h 97% 0 mm 0 W/m2
02:09 14 °C 13 °C 1009.62 hPa N 4 km/h 3 km/h 97% 0 mm 0 W/m2
02:14 14 °C 13 °C 1009.58 hPa NNW 3 km/h 2 km/h 97% 0 mm 0 W/m2
02:19 14 °C 13 °C 1009.58 hPa NNW 2 km/h 1 km/h 97% 0 mm 0 W/m2
02:24 13 °C 13 °C 1009.55 hPa NNW 2 km/h 1 km/h 98% 0 mm 0 W/m2
02:29 13 °C 13 °C 1009.55 hPa NNE 2 km/h 1 km/h 98% 0 mm 0 W/m2
02:34 13 °C 13 °C 1009.58 hPa NNE 4 km/h 2 km/h 98% 0 mm 0 W/m2
02:39 13 °C 13 °C 1009.65 hPa NNE 2 km/h 1 km/h 98% 0 mm 0 W/m2
02:44 13 °C 13 °C 1009.69 hPa NNE 2 km/h 1 km/h 98% 0 mm 0 W/m2
02:49 13 °C 13 °C 1009.75 hPa NNW 2 km/h   98% 0 mm 0 W/m2
02:54 13 °C 13 °C 1009.72 hPa NNW 2 km/h 3 km/h 98% 0 mm 0 W/m2
02:59 13 °C 13 °C 1009.69 hPa NNW 5 km/h 2 km/h 98% 0 mm 0 W/m2
03:04 13 °C 13 °C 1009.69 hPa N 4 km/h 2 km/h 98% 0 mm 0 W/m2
03:09 13 °C 13 °C 1009.79 hPa NNW 3 km/h 1 km/h 98% 0 mm 0 W/m2
03:14 13 °C 13 °C 1009.79 hPa N 4 km/h 2 km/h 98% 0 mm 0 W/m2
03:19 13 °C 13 °C 1009.85 hPa NE 3 km/h 3 km/h 98% 0 mm 0 W/m2
03:24 13 °C 13 °C 1009.89 hPa NE 5 km/h 4 km/h 98% 0 mm 0 W/m2
03:29 13 °C 13 °C 1009.82 hPa NNW 1 km/h   98% 0 mm 0 W/m2
03:34 13 °C 13 °C 1009.75 hPa NW 3 km/h 3 km/h 98% 0 mm 0 W/m2
03:39 13 °C 13 °C 1009.65 hPa NW 3 km/h 4 km/h 98% 0 mm 0 W/m2
03:44 13 °C 13 °C 1009.62 hPa NW 6 km/h 5 km/h 98% 0 mm 0 W/m2
03:49 13 °C 13 °C 1009.58 hPa NW 5 km/h 5 km/h 98% 0 mm 0 W/m2
03:54 13 °C 13 °C 1009.62 hPa NW 5 km/h 4 km/h 98% 0 mm 0 W/m2
03:59 13 °C 13 °C 1009.58 hPa NW 6 km/h 5 km/h 98% 0 mm 0 W/m2
04:04 13 °C 13 °C 1009.62 hPa NW 8 km/h 9 km/h 98% 0 mm 0 W/m2
04:09 13 °C 13 °C 1009.62 hPa NW 10 km/h 8 km/h 98% 0 mm 0 W/m2
04:14 13 °C 13 °C 1009.58 hPa NW 9 km/h 6 km/h 98% 0 mm 0 W/m2
04:19 13 °C 13 °C 1009.58 hPa NW 6 km/h 5 km/h 98% 0 mm 0 W/m2
04:24 13 °C 13 °C 1009.55 hPa NW 7 km/h 6 km/h 98% 0 mm 5 W/m2
04:29 13 °C 13 °C 1009.48 hPa NW 10 km/h 7 km/h 98% 0 mm 7 W/m2
04:34 13 °C 13 °C 1009.45 hPa NW 9 km/h 6 km/h 98% 0 mm 9 W/m2
04:39 13 °C 13 °C 1009.48 hPa NW 8 km/h 6 km/h 98% 0 mm 12 W/m2
04:44 13 °C 13 °C 1009.58 hPa NW 8 km/h 6 km/h 98% 0 mm 16 W/m2
04:49 13 °C 13 °C 1009.65 hPa NW 8 km/h 7 km/h 98% 0 mm 19 W/m2
04:54 13 °C 13 °C 1009.58 hPa NW 10 km/h 5 km/h 98% 0 mm 25 W/m2
04:59 13 °C 13 °C 1009.55 hPa NW 7 km/h 5 km/h 98% 0 mm 32 W/m2
05:04 13 °C 13 °C 1009.58 hPa NW 7 km/h 3 km/h 98% 0 mm 33 W/m2
05:09 13 °C 13 °C 1009.52 hPa NW 11 km/h 7 km/h 98% 0 mm 40 W/m2
05:14 13 °C 13 °C 1009.55 hPa NW 8 km/h 5 km/h 98% 0 mm 47 W/m2
05:19 13 °C 13 °C 1009.58 hPa NW 8 km/h 7 km/h 98% 0 mm 56 W/m2
05:24 13 °C 13 °C 1009.58 hPa NW 8 km/h 7 km/h 98% 0 mm 72 W/m2
05:29 13 °C 13 °C 1009.65 hPa NW 6 km/h 4 km/h 98% 0 mm 77 W/m2
05:34 13 °C 13 °C 1009.69 hPa NNW 7 km/h 5 km/h 98% 0 mm 88 W/m2
05:39 13 °C 13 °C 1009.79 hPa NW 10 km/h 6 km/h 98% 0 mm 93 W/m2
05:44 13 °C 13 °C 1009.82 hPa NNW 8 km/h 5 km/h 98% 0 mm 93 W/m2
05:49 13 °C 13 °C 1009.85 hPa NNW 13 km/h 8 km/h 98% 0 mm 98 W/m2
05:54 13 °C 13 °C 1009.85 hPa N 11 km/h 6 km/h 97% 0 mm 107 W/m2
05:59 13 °C 13 °C 1009.89 hPa NNW 11 km/h 7 km/h 97% 0 mm 116 W/m2
06:04 13 °C 13 °C 1009.96 hPa NW 7 km/h 5 km/h 97% 0 mm 123 W/m2
06:09 13 °C 13 °C 1009.99 hPa NW 7 km/h 4 km/h 97% 0 mm 130 W/m2
06:14 13 °C 13 °C 1009.92 hPa NW 7 km/h 5 km/h 97% 0 mm 141 W/m2
06:19 13 °C 13 °C 1009.96 hPa NNW 8 km/h 4 km/h 97% 0 mm 149 W/m2
06:24 13 °C 13 °C 1009.99 hPa NNW 8 km/h 7 km/h 97% 0 mm 158 W/m2
06:29 14 °C 13 °C 1009.99 hPa NNW 13 km/h 7 km/h 97% 0 mm 169 W/m2
Compliments of Weather Underground - 2 mb